SWA3061 KHOU-KSAN
Flight info
| Callsign | SWA3061 |
|---|---|
| Flight time | N/A |
| Altitude | 36000 |
| Route | RETYR8 JCT KH06Y CONNE/N0464F380 J4 EWM TFD J50 GBN J2 HOGGZ LUCKI1 |
| Aircraft | B738/M-SADE2E3GIJ4RWZ/LB1D1 |
Departure
| Time | 2026-05-01 14:00 |
|---|---|
| Airport | William P. Hobby Airport (KHOU) |
Arrival
| Time | N/A |
|---|---|
| Airport | San Diego International Airport (KSAN) |
| Time | Latitude | Longitude | Altitude | Speed | Heading |
|---|---|---|---|---|---|
| 2026-05-01 13:07 | 29.65322 | -95.27548 | 22 ft | 0 kts | 215° |
| 2026-05-01 13:52 | 29.65341 | -95.27536 | 47 ft | 4 kts | 195° |
| 2026-05-01 13:52 | 29.65365 | -95.27536 | 50 ft | 4 kts | 148° |
| 2026-05-01 13:53 | 29.65379 | -95.27556 | 48 ft | 2 kts | 107° |
| 2026-05-01 13:53 | 29.65381 | -95.27562 | 48 ft | 0 kts | 106° |
| 2026-05-01 13:55 | 29.65377 | -95.27547 | 49 ft | 10 kts | 105° |
| 2026-05-01 13:55 | 29.65330 | -95.27396 | 49 ft | 27 kts | 121° |
| 2026-05-01 13:56 | 29.65179 | -95.27317 | 48 ft | 26 kts | 213° |
| 2026-05-01 13:56 | 29.65106 | -95.27486 | 49 ft | 24 kts | 268° |
| 2026-05-01 13:56 | 29.65100 | -95.27675 | 50 ft | 25 kts | 267° |
| 2026-05-01 13:56 | 29.65104 | -95.27879 | 51 ft | 25 kts | 288° |
| 2026-05-01 13:57 | 29.65213 | -95.28028 | 52 ft | 24 kts | 313° |
| 2026-05-01 13:57 | 29.65287 | -95.28115 | 52 ft | 23 kts | 314° |
| 2026-05-01 13:57 | 29.65281 | -95.28333 | 47 ft | 22 kts | 237° |
| 2026-05-01 13:57 | 29.65227 | -95.28489 | 50 ft | 21 kts | 268° |
| 2026-05-01 13:58 | 29.65204 | -95.28551 | 49 ft | 0 kts | 212° |
| 2026-05-01 13:58 | 29.65173 | -95.28559 | 51 ft | 11 kts | 187° |
| 2026-05-01 13:58 | 29.65092 | -95.28542 | 51 ft | 13 kts | 146° |
| 2026-05-01 13:59 | 29.65085 | -95.28535 | 51 ft | 0 kts | 135° |
| 2026-05-01 13:59 | 29.65033 | -95.28475 | 48 ft | 31 kts | 135° |
| 2026-05-01 13:59 | 29.64704 | -95.28086 | 51 ft | 109 kts | 134° |
| 2026-05-01 13:59 | 29.64020 | -95.27255 | 124 ft | 170 kts | 128° |
| 2026-05-01 14:00 | 29.63104 | -95.26239 | 717 ft | 194 kts | 133° |
| 2026-05-01 14:00 | 29.62160 | -95.25119 | 1804 ft | 184 kts | 122° |
| 2026-05-01 14:00 | 29.61199 | -95.24141 | 2630 ft | 204 kts | 153° |
| 2026-05-01 14:00 | 29.59705 | -95.24062 | 2994 ft | 232 kts | 197° |
| 2026-05-01 14:01 | 29.58398 | -95.25160 | 3780 ft | 239 kts | 229° |
| 2026-05-01 14:01 | 29.57770 | -95.26916 | 4668 ft | 244 kts | 260° |
| 2026-05-01 14:01 | 29.57995 | -95.28926 | 5275 ft | 267 kts | 282° |
| 2026-05-01 14:01 | 29.58587 | -95.31000 | 6074 ft | 275 kts | 285° |
| 2026-05-01 14:02 | 29.59222 | -95.33077 | 6953 ft | 278 kts | 285° |
| 2026-05-01 14:02 | 29.59864 | -95.35179 | 7924 ft | 276 kts | 284° |
| 2026-05-01 14:02 | 29.60488 | -95.37262 | 8912 ft | 275 kts | 284° |
| 2026-05-01 14:02 | 29.61101 | -95.39353 | 9843 ft | 277 kts | 283° |
| 2026-05-01 14:03 | 29.61710 | -95.41463 | 10551 ft | 285 kts | 283° |
| 2026-05-01 14:03 | 29.62354 | -95.43737 | 10751 ft | 311 kts | 283° |
| 2026-05-01 14:03 | 29.63035 | -95.46159 | 10957 ft | 334 kts | 284° |
| 2026-05-01 14:03 | 29.63522 | -95.47891 | 11290 ft | 341 kts | 284° |
| 2026-05-01 14:04 | 29.64496 | -95.51339 | 12367 ft | 342 kts | 284° |
| 2026-05-01 14:04 | 29.65227 | -95.53932 | 13254 ft | 339 kts | 284° |
| 2026-05-01 14:04 | 29.65952 | -95.56515 | 14010 ft | 340 kts | 284° |
| 2026-05-01 14:04 | 29.66434 | -95.58241 | 14427 ft | 342 kts | 284° |
| 2026-05-01 14:05 | 29.67165 | -95.60859 | 15028 ft | 345 kts | 284° |
| 2026-05-01 14:05 | 29.67900 | -95.63493 | 15649 ft | 348 kts | 284° |
| 2026-05-01 14:05 | 29.68642 | -95.66158 | 16288 ft | 349 kts | 284° |
| 2026-05-01 14:05 | 29.69383 | -95.68817 | 16911 ft | 351 kts | 284° |
| 2026-05-01 14:06 | 29.70133 | -95.71514 | 17534 ft | 353 kts | 284° |
| 2026-05-01 14:06 | 29.70883 | -95.74213 | 18100 ft | 355 kts | 284° |
| 2026-05-01 14:06 | 29.71889 | -95.77814 | 18763 ft | 359 kts | 285° |
| 2026-05-01 14:06 | 29.72516 | -95.79639 | 19114 ft | 364 kts | 290° |
| 2026-05-01 14:07 | 29.73749 | -95.82218 | 19591 ft | 371 kts | 296° |
| 2026-05-01 14:07 | 29.75110 | -95.84757 | 20123 ft | 374 kts | 296° |
| 2026-05-01 14:07 | 29.76468 | -95.87314 | 20579 ft | 376 kts | 296° |
| 2026-05-01 14:08 | 29.79178 | -95.92526 | 21497 ft | 382 kts | 296° |
| 2026-05-01 14:08 | 29.80537 | -95.95169 | 21928 ft | 385 kts | 296° |
| 2026-05-01 14:08 | 29.81887 | -95.97796 | 22354 ft | 387 kts | 296° |
| 2026-05-01 14:08 | 29.83264 | -96.00478 | 22768 ft | 390 kts | 296° |
| 2026-05-01 14:09 | 29.84649 | -96.03172 | 23164 ft | 393 kts | 296° |
| 2026-05-01 14:09 | 29.86053 | -96.05905 | 23550 ft | 396 kts | 296° |
| 2026-05-01 14:09 | 29.87463 | -96.08647 | 23862 ft | 399 kts | 296° |
| 2026-05-01 14:09 | 29.88885 | -96.11416 | 24182 ft | 401 kts | 296° |
| 2026-05-01 14:10 | 29.90308 | -96.14189 | 24493 ft | 403 kts | 296° |
| 2026-05-01 14:10 | 29.91723 | -96.16948 | 24805 ft | 405 kts | 296° |
| 2026-05-01 14:10 | 29.93021 | -96.19815 | 25101 ft | 403 kts | 289° |
| 2026-05-01 14:10 | 29.93984 | -96.22846 | 25404 ft | 402 kts | 283° |
| 2026-05-01 14:11 | 29.94565 | -96.25988 | 25713 ft | 401 kts | 277° |
| 2026-05-01 14:11 | 29.95528 | -96.32357 | 26366 ft | 405 kts | 277° |
| 2026-05-01 14:11 | 29.96018 | -96.35561 | 26673 ft | 406 kts | 277° |
| 2026-05-01 14:12 | 29.96518 | -96.38788 | 26983 ft | 408 kts | 277° |
| 2026-05-01 14:12 | 29.97015 | -96.41973 | 27279 ft | 410 kts | 277° |
| 2026-05-01 14:12 | 29.97523 | -96.45215 | 27582 ft | 412 kts | 277° |
| 2026-05-01 14:12 | 29.98033 | -96.48471 | 27876 ft | 413 kts | 277° |
| 2026-05-01 14:13 | 29.98545 | -96.51743 | 28151 ft | 415 kts | 277° |
| 2026-05-01 14:13 | 29.99057 | -96.55027 | 28424 ft | 416 kts | 277° |
| 2026-05-01 14:13 | 29.99568 | -96.58319 | 28680 ft | 418 kts | 277° |
| 2026-05-01 14:13 | 30.00078 | -96.61625 | 28976 ft | 419 kts | 276° |
| 2026-05-01 14:14 | 30.00587 | -96.64937 | 29356 ft | 418 kts | 276° |
| 2026-05-01 14:14 | 30.01091 | -96.68224 | 29833 ft | 415 kts | 276° |
| 2026-05-01 14:14 | 30.01593 | -96.71495 | 30265 ft | 412 kts | 276° |
| 2026-05-01 14:14 | 30.02091 | -96.74752 | 30578 ft | 413 kts | 276° |
| 2026-05-01 14:15 | 30.02588 | -96.78016 | 30842 ft | 414 kts | 276° |
| 2026-05-01 14:15 | 30.03085 | -96.81281 | 31150 ft | 414 kts | 276° |
| 2026-05-01 14:15 | 30.03582 | -96.84550 | 31530 ft | 412 kts | 276° |
| 2026-05-01 14:15 | 30.04078 | -96.87816 | 31878 ft | 412 kts | 276° |
| 2026-05-01 14:16 | 30.04565 | -96.91027 | 32174 ft | 412 kts | 276° |
| 2026-05-01 14:16 | 30.05065 | -96.94327 | 32506 ft | 412 kts | 276° |
| 2026-05-01 14:16 | 30.05551 | -96.97547 | 32842 ft | 411 kts | 276° |
| 2026-05-01 14:16 | 30.06042 | -97.00795 | 33177 ft | 410 kts | 275° |
| 2026-05-01 14:17 | 30.06529 | -97.04034 | 33495 ft | 409 kts | 275° |
| 2026-05-01 14:17 | 30.07016 | -97.07273 | 33830 ft | 408 kts | 275° |
| 2026-05-01 14:17 | 30.07501 | -97.10505 | 34130 ft | 407 kts | 275° |
| 2026-05-01 14:17 | 30.07983 | -97.13716 | 34450 ft | 405 kts | 275° |
| 2026-05-01 14:18 | 30.08454 | -97.16863 | 34830 ft | 401 kts | 275° |
| 2026-05-01 14:18 | 30.08927 | -97.20025 | 35184 ft | 398 kts | 275° |
| 2026-05-01 14:18 | 30.09396 | -97.23172 | 35434 ft | 398 kts | 275° |
| 2026-05-01 14:18 | 30.09712 | -97.25302 | 35583 ft | 398 kts | 275° |
| 2026-05-01 14:19 | 30.10330 | -97.29470 | 35885 ft | 398 kts | 275° |
| 2026-05-01 14:19 | 30.10797 | -97.32619 | 35917 ft | 399 kts | 275° |
| 2026-05-01 14:19 | 30.11730 | -97.38928 | 35967 ft | 397 kts | 275° |
| 2026-05-01 14:20 | 30.13114 | -97.48324 | 36019 ft | 394 kts | 275° |
| 2026-05-01 14:21 | 30.14029 | -97.54564 | 36046 ft | 393 kts | 275° |
| 2026-05-01 14:21 | 30.14938 | -97.60790 | 36009 ft | 393 kts | 274° |
| 2026-05-01 14:22 | 30.16296 | -97.70118 | 36013 ft | 392 kts | 274° |
| 2026-05-01 14:22 | 30.17265 | -97.76335 | 36010 ft | 395 kts | 277° |
| 2026-05-01 14:23 | 30.18529 | -97.82486 | 36005 ft | 396 kts | 278° |
| 2026-05-01 14:23 | 30.19846 | -97.88708 | 35999 ft | 396 kts | 278° |
| 2026-05-01 14:24 | 30.21130 | -97.94871 | 35993 ft | 396 kts | 277° |
| 2026-05-01 14:24 | 30.22407 | -98.01068 | 35996 ft | 396 kts | 277° |
| 2026-05-01 14:25 | 30.23677 | -98.07264 | 35997 ft | 396 kts | 277° |
| 2026-05-01 14:25 | 30.24946 | -98.13471 | 35998 ft | 396 kts | 277° |
| 2026-05-01 14:26 | 30.26841 | -98.22772 | 35999 ft | 396 kts | 277° |
| 2026-05-01 14:27 | 30.28093 | -98.28938 | 36010 ft | 396 kts | 277° |
| 2026-05-01 14:27 | 30.29353 | -98.35150 | 36020 ft | 396 kts | 277° |
| 2026-05-01 14:28 | 30.31305 | -98.44454 | 36011 ft | 397 kts | 278° |
| 2026-05-01 14:28 | 30.32636 | -98.50648 | 36026 ft | 396 kts | 278° |
| 2026-05-01 14:29 | 30.33960 | -98.56849 | 36021 ft | 396 kts | 278° |
| 2026-05-01 14:30 | 30.36588 | -98.69253 | 35992 ft | 397 kts | 277° |
| 2026-05-01 14:31 | 30.38553 | -98.78575 | 35989 ft | 397 kts | 277° |
| 2026-05-01 14:31 | 30.39853 | -98.84762 | 35989 ft | 398 kts | 277° |
| 2026-05-01 14:32 | 30.41161 | -98.90998 | 35989 ft | 398 kts | 277° |
| 2026-05-01 14:32 | 30.42467 | -98.97246 | 35987 ft | 398 kts | 277° |
| 2026-05-01 14:33 | 30.43768 | -99.03481 | 35996 ft | 398 kts | 277° |
| 2026-05-01 14:33 | 30.45067 | -99.09723 | 35995 ft | 398 kts | 277° |
| 2026-05-01 14:34 | 30.46360 | -99.15952 | 35984 ft | 397 kts | 277° |
| 2026-05-01 14:34 | 30.47638 | -99.22126 | 35991 ft | 396 kts | 277° |
| 2026-05-01 14:35 | 30.48918 | -99.28325 | 35993 ft | 395 kts | 277° |
| 2026-05-01 14:35 | 30.50193 | -99.34520 | 35991 ft | 394 kts | 277° |
| 2026-05-01 14:36 | 30.51463 | -99.40705 | 35988 ft | 394 kts | 277° |
| 2026-05-01 14:36 | 30.52730 | -99.46888 | 35992 ft | 393 kts | 277° |
| 2026-05-01 14:37 | 30.53993 | -99.53068 | 35991 ft | 393 kts | 277° |
| 2026-05-01 14:37 | 30.55251 | -99.59241 | 35990 ft | 393 kts | 277° |
| 2026-05-01 14:38 | 30.56500 | -99.65386 | 35994 ft | 393 kts | 277° |
| 2026-05-01 14:38 | 30.57750 | -99.71550 | 35991 ft | 392 kts | 277° |
| 2026-05-01 14:39 | 30.58999 | -99.77724 | 35996 ft | 392 kts | 277° |
| 2026-05-01 14:39 | 30.60236 | -99.83891 | 35997 ft | 392 kts | 276° |
| 2026-05-01 14:40 | 30.61428 | -99.90063 | 35986 ft | 391 kts | 276° |
| 2026-05-01 14:40 | 30.62599 | -99.96187 | 35989 ft | 391 kts | 276° |
| 2026-05-01 14:41 | 30.63776 | -100.02346 | 35996 ft | 390 kts | 276° |
| 2026-05-01 14:41 | 30.64953 | -100.08501 | 35990 ft | 390 kts | 276° |
| 2026-05-01 14:42 | 30.66126 | -100.14652 | 35982 ft | 390 kts | 276° |
| 2026-05-01 14:42 | 30.67296 | -100.20803 | 35985 ft | 390 kts | 276° |
| 2026-05-01 14:43 | 30.68463 | -100.26951 | 35990 ft | 389 kts | 276° |
| 2026-05-01 14:43 | 30.69624 | -100.33084 | 35999 ft | 389 kts | 276° |
| 2026-05-01 14:44 | 30.70782 | -100.39220 | 36018 ft | 388 kts | 276° |
| 2026-05-01 14:44 | 30.72511 | -100.48411 | 36034 ft | 388 kts | 276° |
| 2026-05-01 14:45 | 30.74231 | -100.57593 | 36045 ft | 387 kts | 276° |
| 2026-05-01 14:46 | 30.75372 | -100.63712 | 36043 ft | 387 kts | 276° |
| 2026-05-01 14:46 | 30.77075 | -100.72867 | 36029 ft | 388 kts | 276° |
| 2026-05-01 14:47 | 30.78213 | -100.79004 | 36019 ft | 388 kts | 276° |
| 2026-05-01 14:48 | 30.79915 | -100.88216 | 36015 ft | 389 kts | 276° |
| 2026-05-01 14:48 | 30.81606 | -100.97411 | 36025 ft | 389 kts | 276° |
| 2026-05-01 14:49 | 30.83860 | -101.09717 | 36048 ft | 388 kts | 276° |
| 2026-05-01 14:50 | 30.86092 | -101.21977 | 36055 ft | 386 kts | 276° |
| 2026-05-01 14:51 | 30.87754 | -101.31149 | 36040 ft | 385 kts | 276° |
| 2026-05-01 14:52 | 30.89405 | -101.40307 | 36017 ft | 385 kts | 276° |
| 2026-05-01 14:53 | 30.91042 | -101.49419 | 35983 ft | 384 kts | 276° |
| 2026-05-01 14:53 | 30.92133 | -101.55514 | 35978 ft | 384 kts | 276° |
| 2026-05-01 14:54 | 30.93221 | -101.61613 | 35962 ft | 385 kts | 276° |